AAL1836 KDFW-KSAT
Flight info
| Callsign | AAL1836 |
|---|---|
| Flight time | N/A |
| Altitude | 28000 |
| Route | JASPA7 WINDU QERVO3 |
| Aircraft | B738/M-SDE2E3FGHIRWXY/LB1 |
Departure
| Time | 2026-05-06 18:34 |
|---|---|
| Airport | Dallas Fort Worth International Airport (KDFW) |
Arrival
| Time | N/A |
|---|---|
| Airport | San Antonio International Airport (KSAT) |
| Time | Latitude | Longitude | Altitude | Speed | Heading |
|---|---|---|---|---|---|
| 2026-05-06 18:11 | 32.89877 | -97.03507 | 583 ft | 0 kts | 256° |
| 2026-05-06 18:20 | 32.89878 | -97.03500 | 583 ft | 2 kts | 250° |
| 2026-05-06 18:20 | 32.89887 | -97.03485 | 583 ft | 2 kts | 224° |
| 2026-05-06 18:21 | 32.89899 | -97.03475 | 583 ft | 2 kts | 201° |
| 2026-05-06 18:21 | 32.89913 | -97.03471 | 583 ft | 2 kts | 180° |
| 2026-05-06 18:21 | 32.89928 | -97.03474 | 584 ft | 2 kts | 158° |
| 2026-05-06 18:21 | 32.89941 | -97.03484 | 584 ft | 2 kts | 137° |
| 2026-05-06 18:22 | 32.89946 | -97.03489 | 584 ft | 0 kts | 141° |
| 2026-05-06 18:22 | 32.89947 | -97.03489 | 584 ft | 0 kts | 141° |
| 2026-05-06 18:22 | 32.89946 | -97.03489 | 584 ft | 0 kts | 141° |
| 2026-05-06 18:24 | 32.89923 | -97.03466 | 583 ft | 9 kts | 141° |
| 2026-05-06 18:24 | 32.89895 | -97.03379 | 581 ft | 12 kts | 92° |
| 2026-05-06 18:24 | 32.89851 | -97.03318 | 579 ft | 13 kts | 165° |
| 2026-05-06 18:25 | 32.89745 | -97.03301 | 578 ft | 15 kts | 190° |
| 2026-05-06 18:25 | 32.89619 | -97.03316 | 578 ft | 20 kts | 179° |
| 2026-05-06 18:25 | 32.89479 | -97.03313 | 575 ft | 21 kts | 181° |
| 2026-05-06 18:25 | 32.89324 | -97.03316 | 575 ft | 21 kts | 181° |
| 2026-05-06 18:26 | 32.89187 | -97.03319 | 575 ft | 17 kts | 180° |
| 2026-05-06 18:26 | 32.89071 | -97.03319 | 574 ft | 15 kts | 181° |
| 2026-05-06 18:26 | 32.88968 | -97.03320 | 572 ft | 13 kts | 180° |
| 2026-05-06 18:26 | 32.88870 | -97.03318 | 572 ft | 15 kts | 180° |
| 2026-05-06 18:27 | 32.88758 | -97.03320 | 572 ft | 17 kts | 180° |
| 2026-05-06 18:27 | 32.88629 | -97.03326 | 572 ft | 17 kts | 185° |
| 2026-05-06 18:27 | 32.88599 | -97.03391 | 572 ft | 10 kts | 273° |
| 2026-05-06 18:27 | 32.88601 | -97.03503 | 572 ft | 12 kts | 271° |
| 2026-05-06 18:28 | 32.88601 | -97.03609 | 570 ft | 12 kts | 269° |
| 2026-05-06 18:28 | 32.88600 | -97.03719 | 569 ft | 13 kts | 269° |
| 2026-05-06 18:28 | 32.88599 | -97.03836 | 568 ft | 15 kts | 269° |
| 2026-05-06 18:28 | 32.88602 | -97.03962 | 568 ft | 15 kts | 272° |
| 2026-05-06 18:29 | 32.88605 | -97.04090 | 568 ft | 15 kts | 271° |
| 2026-05-06 18:29 | 32.88606 | -97.04216 | 569 ft | 13 kts | 271° |
| 2026-05-06 18:29 | 32.88608 | -97.04319 | 571 ft | 11 kts | 271° |
| 2026-05-06 18:29 | 32.88608 | -97.04402 | 573 ft | 8 kts | 269° |
| 2026-05-06 18:30 | 32.88607 | -97.04468 | 574 ft | 9 kts | 269° |
| 2026-05-06 18:30 | 32.88605 | -97.04570 | 576 ft | 11 kts | 269° |
| 2026-05-06 18:30 | 32.88605 | -97.04665 | 578 ft | 14 kts | 271° |
| 2026-05-06 18:30 | 32.88605 | -97.04824 | 578 ft | 19 kts | 255° |
| 2026-05-06 18:31 | 32.88502 | -97.04897 | 576 ft | 18 kts | 180° |
| 2026-05-06 18:31 | 32.88370 | -97.04894 | 573 ft | 19 kts | 178° |
| 2026-05-06 18:31 | 32.88237 | -97.04894 | 572 ft | 19 kts | 180° |
| 2026-05-06 18:31 | 32.88100 | -97.04893 | 570 ft | 19 kts | 180° |
| 2026-05-06 18:32 | 32.87962 | -97.04896 | 569 ft | 19 kts | 181° |
| 2026-05-06 18:32 | 32.87884 | -97.04944 | 568 ft | 12 kts | 273° |
| 2026-05-06 18:32 | 32.87919 | -97.05067 | 566 ft | 19 kts | 299° |
| 2026-05-06 18:32 | 32.87967 | -97.05096 | 567 ft | 0 kts | 360° |
| 2026-05-06 18:33 | 32.88191 | -97.05093 | 570 ft | 72 kts | 1° |
| 2026-05-06 18:33 | 32.88940 | -97.05084 | 585 ft | 141 kts | 1° |
| 2026-05-06 18:33 | 32.90100 | -97.05084 | 778 ft | 182 kts | 0° |
| 2026-05-06 18:34 | 32.91363 | -97.05116 | 1615 ft | 184 kts | 359° |
| 2026-05-06 18:34 | 32.92686 | -97.05195 | 2310 ft | 200 kts | 358° |
| 2026-05-06 18:34 | 32.94121 | -97.05297 | 2868 ft | 216 kts | 354° |
| 2026-05-06 18:34 | 32.95655 | -97.05750 | 3428 ft | 235 kts | 341° |
| 2026-05-06 18:35 | 32.97218 | -97.06462 | 4087 ft | 247 kts | 339° |
| 2026-05-06 18:35 | 32.98788 | -97.07325 | 4805 ft | 255 kts | 328° |
| 2026-05-06 18:35 | 33.00113 | -97.08697 | 5579 ft | 257 kts | 303° |
| 2026-05-06 18:35 | 33.00845 | -97.10590 | 6442 ft | 254 kts | 279° |
| 2026-05-06 18:36 | 33.01017 | -97.12631 | 7359 ft | 249 kts | 267° |